createdAt,value
2022-08-22T00:02:10.463Z,21.86
2022-08-22T00:02:43.366Z,23.73
2022-08-22T00:02:48.495Z,23.82
2022-08-22T00:03:15.478Z,21.80
2022-08-22T00:04:48.828Z,22.14
2022-08-22T00:07:28.239Z,22.40
2022-08-22T00:10:04.255Z,22.41
2022-08-22T00:12:40.964Z,22.13
2022-08-22T00:15:35.427Z,22.30
2022-08-22T00:18:08.233Z,22.52
2022-08-22T00:20:42.721Z,22.00
2022-08-22T00:23:22.731Z,22.19
2022-08-22T00:26:00.405Z,22.04
2022-08-22T00:28:35.799Z,21.73
2022-08-22T00:31:19.938Z,21.41
2022-08-22T00:33:54.509Z,21.81
2022-08-22T00:36:27.093Z,22.02
2022-08-22T00:39:08.756Z,22.10
2022-08-22T00:42:10.116Z,22.16
2022-08-22T00:45:15.295Z,22.17
2022-08-22T00:47:58.047Z,22.02
2022-08-22T00:50:41.126Z,22.04
2022-08-22T00:53:27.565Z,22.22
2022-08-22T00:56:15.542Z,22.12
2022-08-22T00:59:23.638Z,22.48
2022-08-22T01:02:04.955Z,22.53
2022-08-22T01:05:04.061Z,22.55
2022-08-22T01:07:55.513Z,22.56
2022-08-22T01:10:42.713Z,22.50
2022-08-22T01:13:25.864Z,22.47
2022-08-22T01:16:05.046Z,22.42
2022-08-22T01:19:09.375Z,22.31
2022-08-22T01:22:16.301Z,22.29
2022-08-22T01:25:42.025Z,22.51
2022-08-22T01:28:56.147Z,22.63
2022-08-22T01:32:03.500Z,22.85
2022-08-22T01:35:04.925Z,22.71
2022-08-22T01:37:57.819Z,22.80
2022-08-22T01:41:10.565Z,22.69
2022-08-22T01:44:19.534Z,22.59
2022-08-22T01:46:59.591Z,22.71
2022-08-22T01:49:36.653Z,22.70
2022-08-22T01:52:10.872Z,22.71
2022-08-22T01:54:49.011Z,22.30
2022-08-22T01:57:19.426Z,22.41
2022-08-22T01:59:51.120Z,22.54
2022-08-22T02:02:44.615Z,21.92
2022-08-22T02:05:24.938Z,21.97
2022-08-22T02:08:03.367Z,21.85
2022-08-22T02:10:56.820Z,21.71
2022-08-22T02:13:46.153Z,21.90
2022-08-22T02:16:21.915Z,22.01
2022-08-22T02:19:02.097Z,22.12
2022-08-22T02:21:44.068Z,22.10
2022-08-22T02:24:25.607Z,22.11
2022-08-22T02:27:07.981Z,22.05
2022-08-22T02:29:44.916Z,22.13
2022-08-22T02:32:21.058Z,22.19
2022-08-22T02:35:00.239Z,22.20
2022-08-22T02:37:39.577Z,22.40
2022-08-22T02:40:17.572Z,22.64
2022-08-22T02:42:51.442Z,22.56
2022-08-22T02:45:28.798Z,22.41
2022-08-22T02:48:12.551Z,22.07
2022-08-22T02:50:49.387Z,21.43
2022-08-22T02:53:23.973Z,21.42
2022-08-22T02:56:01.320Z,21.53
2022-08-22T02:58:40.522Z,20.87
2022-08-22T03:01:35.944Z,21.02
2022-08-22T03:04:48.971Z,21.11
2022-08-22T03:07:30.598Z,21.87
2022-08-22T03:10:09.075Z,21.91
2022-08-22T03:12:48.536Z,21.63
2022-08-22T03:15:24.775Z,21.30
2022-08-22T03:18:01.277Z,21.39
2022-08-22T03:20:48.099Z,21.25
2022-08-22T03:23:27.060Z,21.19
2022-08-22T03:26:07.452Z,20.88
2022-08-22T03:28:59.552Z,20.89
2022-08-22T03:31:31.289Z,20.21
2022-08-22T03:34:22.853Z,20.50
2022-08-22T03:37:05.825Z,20.37
2022-08-22T03:39:47.913Z,20.78
2022-08-22T03:42:46.629Z,20.50
2022-08-22T03:45:44.156Z,20.54
2022-08-22T03:48:54.673Z,20.76
2022-08-22T03:51:47.739Z,20.53
2022-08-22T03:54:49.109Z,20.85
2022-08-22T03:57:54.617Z,21.17
2022-08-22T04:00:51.733Z,21.41
2022-08-22T04:03:50.020Z,21.71
2022-08-22T04:06:49.426Z,22.01
2022-08-22T04:10:00.327Z,22.01
2022-08-22T04:13:03.907Z,22.28
2022-08-22T04:15:47.614Z,22.11
2022-08-22T04:18:41.179Z,22.42
2022-08-22T04:21:35.505Z,22.08
2022-08-22T04:24:37.595Z,22.07
2022-08-22T04:27:13.849Z,22.03
2022-08-22T04:29:48.425Z,21.96
2022-08-22T04:32:26.422Z,22.07
2022-08-22T04:35:00.917Z,22.10
2022-08-22T04:37:36.844Z,21.89
2022-08-22T04:40:12.122Z,22.13
2022-08-22T04:42:46.869Z,21.44
2022-08-22T04:45:19.345Z,21.36
2022-08-22T04:47:55.922Z,20.73
2022-08-22T04:50:29.038Z,20.85
2022-08-22T04:53:09.668Z,21.00
2022-08-22T04:55:50.616Z,21.37
2022-08-22T04:58:33.947Z,21.49
2022-08-22T05:01:11.901Z,21.49
2022-08-22T05:03:48.394Z,21.64
2022-08-22T05:06:19.862Z,21.77
2022-08-22T05:08:53.923Z,21.94
2022-08-22T05:11:25.379Z,21.67
2022-08-22T05:13:58.551Z,22.08
2022-08-22T05:16:32.411Z,22.09
2022-08-22T05:19:08.200Z,21.95
2022-08-22T05:21:41.676Z,22.13
2022-08-22T05:24:15.304Z,22.17
2022-08-22T05:26:48.803Z,22.34
2022-08-22T05:29:23.603Z,22.59
2022-08-22T05:31:59.460Z,22.50
2022-08-22T05:34:36.537Z,22.63
2022-08-22T05:37:11.706Z,22.59
2022-08-22T05:39:47.135Z,22.66
2022-08-22T05:42:23.709Z,22.66
2022-08-22T05:44:52.990Z,22.87
2022-08-22T05:47:24.803Z,22.90
2022-08-22T05:50:02.195Z,22.54
2022-08-22T05:52:46.030Z,22.06
2022-08-22T05:55:25.843Z,21.70
2022-08-22T05:58:26.505Z,21.77
2022-08-22T06:01:06.157Z,22.56
2022-08-22T06:03:39.804Z,22.98
2022-08-22T06:06:16.237Z,22.55
2022-08-22T06:08:50.141Z,22.76
2022-08-22T06:11:25.677Z,23.04
2022-08-22T06:14:19.374Z,23.75
2022-08-22T06:17:01.379Z,23.36
2022-08-22T06:19:31.251Z,23.28
2022-08-22T06:22:03.167Z,23.70
2022-08-22T06:24:38.706Z,23.45
2022-08-22T06:27:14.001Z,23.73
2022-08-22T06:29:45.523Z,23.18
2022-08-22T06:32:17.473Z,23.08
2022-08-22T06:35:12.637Z,22.99
2022-08-22T06:37:46.092Z,23.07
2022-08-22T06:40:17.748Z,23.41
2022-08-22T06:42:51.575Z,22.60
2022-08-22T06:45:23.847Z,22.90
2022-08-22T06:48:00.215Z,22.58
2022-08-22T06:50:33.726Z,22.53
2022-08-22T06:53:10.236Z,22.07
2022-08-22T06:55:42.506Z,21.81
2022-08-22T06:58:16.544Z,22.27
2022-08-22T07:00:51.563Z,22.06
2022-08-22T07:03:39.823Z,22.86
2022-08-22T07:06:15.894Z,23.52
2022-08-22T07:08:47.519Z,23.78
2022-08-22T07:11:21.927Z,23.40
2022-08-22T07:13:58.058Z,22.99
2022-08-22T07:16:31.893Z,23.86
2022-08-22T07:19:02.017Z,24.35
2022-08-22T07:21:43.703Z,24.56
2022-08-22T07:24:19.181Z,23.97
2022-08-22T07:26:57.386Z,23.99
2022-08-22T07:29:33.561Z,24.99
2022-08-22T07:32:11.654Z,25.17
2022-08-22T07:34:55.473Z,24.34
2022-08-22T07:37:33.779Z,24.93
2022-08-22T07:40:14.131Z,24.73
2022-08-22T07:42:49.248Z,25.42
2022-08-22T07:45:25.875Z,25.74
2022-08-22T07:48:05.622Z,25.65
2022-08-22T07:50:39.423Z,25.04
2022-08-22T07:53:16.880Z,24.58
2022-08-22T07:55:49.497Z,25.10
2022-08-22T07:58:21.007Z,24.89
2022-08-22T08:00:51.112Z,24.72
2022-08-22T08:03:23.216Z,25.21
2022-08-22T08:05:53.504Z,25.83
2022-08-22T08:08:26.624Z,25.76
2022-08-22T08:10:59.851Z,26.44
2022-08-22T08:13:32.419Z,25.99
2022-08-22T08:16:02.349Z,25.72
2022-08-22T08:18:35.240Z,25.75
2022-08-22T08:21:09.126Z,26.03
2022-08-22T08:23:42.568Z,26.13
2022-08-22T08:26:17.354Z,26.65
2022-08-22T08:28:48.169Z,26.83
2022-08-22T08:31:25.163Z,27.22
2022-08-22T08:34:01.540Z,26.97
2022-08-22T08:36:51.627Z,26.25
2022-08-22T08:39:28.589Z,27.04
2022-08-22T08:42:59.204Z,26.90
2022-08-22T08:46:00.294Z,26.47
2022-08-22T08:48:53.065Z,26.32
2022-08-22T08:51:48.998Z,26.81
2022-08-22T08:54:37.008Z,27.69
2022-08-22T08:57:16.483Z,27.36
2022-08-22T08:59:59.973Z,27.50
2022-08-22T09:02:46.980Z,28.69
2022-08-22T09:05:39.895Z,29.46
2022-08-22T09:08:56.639Z,30.12
2022-08-22T09:11:44.774Z,30.97
2022-08-22T09:14:27.204Z,31.41
2022-08-22T09:17:27.491Z,32.13
2022-08-22T09:20:26.737Z,31.55
2022-08-22T09:23:24.446Z,30.18
2022-08-22T09:25:57.926Z,29.50
2022-08-22T09:28:38.703Z,29.95
2022-08-22T09:34:35.789Z,28.48
2022-08-22T09:37:16.509Z,28.65
2022-08-22T09:39:59.833Z,28.96
2022-08-22T09:40:16.383Z,28.73
2022-08-22T09:42:38.200Z,29.68
2022-08-22T09:45:57.845Z,30.32
2022-08-22T09:48:50.606Z,30.64
2022-08-22T09:51:34.589Z,30.41
2022-08-22T09:54:18.890Z,30.11
2022-08-22T09:56:58.348Z,30.55
2022-08-22T09:59:47.834Z,31.99
2022-08-22T10:02:37.400Z,32.38
2022-08-22T10:05:40.912Z,31.28
2022-08-22T10:08:39.807Z,30.41
2022-08-22T10:11:19.516Z,29.06
2022-08-22T10:13:57.717Z,30.00
2022-08-22T10:16:52.706Z,30.25
2022-08-22T10:19:29.760Z,30.24
2022-08-22T10:22:24.302Z,29.20
2022-08-22T10:25:12.710Z,30.69
2022-08-22T10:28:12.064Z,30.58
2022-08-22T10:30:52.543Z,31.55
2022-08-22T10:33:29.390Z,32.95
2022-08-22T10:36:05.200Z,33.91
2022-08-22T10:38:46.466Z,31.41
2022-08-22T10:41:29.137Z,31.49
2022-08-22T10:44:07.371Z,31.81
2022-08-22T10:46:47.169Z,31.78
2022-08-22T10:49:28.320Z,31.46
2022-08-22T10:52:13.650Z,31.09
2022-08-22T10:54:49.485Z,31.23
2022-08-22T10:57:35.592Z,31.49
2022-08-22T11:00:32.233Z,31.37
2022-08-22T11:03:18.684Z,29.48
2022-08-22T11:05:53.449Z,29.66
2022-08-22T11:08:40.375Z,30.03
2022-08-22T11:11:20.749Z,29.42
2022-08-22T11:14:17.449Z,30.62
2022-08-22T11:16:59.189Z,31.47
2022-08-22T11:19:45.694Z,33.20
2022-08-22T11:22:29.325Z,33.28
2022-08-22T11:25:29.233Z,30.12
2022-08-22T11:28:25.920Z,29.79
2022-08-22T11:31:07.037Z,29.84
2022-08-22T11:33:47.419Z,30.40
2022-08-22T11:36:30.936Z,29.74
2022-08-22T11:39:09.965Z,29.26
2022-08-22T11:41:59.619Z,30.47
2022-08-22T11:44:34.557Z,29.92
2022-08-22T11:47:26.635Z,29.84
2022-08-22T11:50:05.579Z,29.60
2022-08-22T11:53:07.624Z,29.05
2022-08-22T11:55:39.873Z,28.77
2022-08-22T11:58:29.300Z,28.33
2022-08-22T12:01:03.912Z,27.42
2022-08-22T12:03:50.994Z,27.28
2022-08-22T12:06:47.687Z,27.66
2022-08-22T12:09:39.768Z,26.79
2022-08-22T12:12:24.088Z,25.35
2022-08-22T12:15:00.792Z,25.65
2022-08-22T12:18:01.504Z,25.67
2022-08-22T12:20:52.194Z,25.90
2022-08-22T12:23:49.333Z,25.96
2022-08-22T12:26:27.140Z,26.00
2022-08-22T12:29:15.651Z,26.24
2022-08-22T12:32:34.099Z,26.71
2022-08-22T12:35:29.925Z,27.33
2022-08-22T12:38:28.390Z,27.24
2022-08-22T12:41:27.783Z,26.55
2022-08-22T12:44:03.685Z,26.14
2022-08-22T12:46:46.624Z,26.30
2022-08-22T12:49:36.650Z,26.27
2022-08-22T12:52:21.044Z,26.55
2022-08-22T12:55:03.167Z,26.49
2022-08-22T12:57:42.819Z,26.61
2022-08-22T13:00:26.915Z,26.79
2022-08-22T13:02:56.928Z,27.48
2022-08-22T13:05:28.904Z,27.84
2022-08-22T13:08:04.344Z,27.89
2022-08-22T13:10:42.532Z,27.92
2022-08-22T13:13:36.571Z,28.50
2022-08-22T13:16:09.400Z,29.23
2022-08-22T13:18:54.060Z,29.59
2022-08-22T13:21:31.686Z,29.77
2022-08-22T13:24:10.425Z,30.18
2022-08-22T13:26:49.356Z,30.46
2022-08-22T13:29:27.007Z,30.63
2022-08-22T13:32:01.789Z,30.69
2022-08-22T13:34:40.597Z,30.54
2022-08-22T13:37:17.515Z,30.72
2022-08-22T13:39:59.953Z,30.43
2022-08-22T13:42:33.151Z,30.41
2022-08-22T13:45:11.666Z,30.07
2022-08-22T13:47:50.078Z,29.52
2022-08-22T13:50:23.305Z,29.15
2022-08-22T13:52:59.408Z,29.49
2022-08-22T13:55:34.168Z,29.34
2022-08-22T13:58:11.162Z,29.53
2022-08-22T14:01:25.327Z,29.35
2022-08-22T14:04:01.819Z,29.27
2022-08-22T14:06:41.523Z,29.39
2022-08-22T14:09:30.731Z,29.42
2022-08-22T14:12:12.681Z,29.53
2022-08-22T14:14:45.866Z,29.22
2022-08-22T14:17:18.774Z,29.10
2022-08-22T14:19:59.683Z,28.92
2022-08-22T14:22:34.846Z,29.00
2022-08-22T14:25:08.879Z,29.40
2022-08-22T14:27:43.951Z,29.67
2022-08-22T14:30:18.846Z,30.20
2022-08-22T14:32:52.173Z,30.18
2022-08-22T14:35:34.199Z,30.00
2022-08-22T14:38:29.776Z,30.01
2022-08-22T14:41:03.909Z,29.71
2022-08-22T14:43:50.845Z,29.48
2022-08-22T14:46:26.997Z,29.52
2022-08-22T14:49:13.527Z,29.23
2022-08-22T14:51:50.902Z,29.29
2022-08-22T14:54:23.429Z,29.05
2022-08-22T14:57:00.521Z,27.93
2022-08-22T14:59:40.026Z,27.57
2022-08-22T15:02:17.363Z,27.45
2022-08-22T15:04:50.982Z,27.54
2022-08-22T15:07:25.661Z,27.47
2022-08-22T15:09:58.760Z,27.27
2022-08-22T15:12:30.748Z,27.15
2022-08-22T15:15:02.959Z,27.02
2022-08-22T15:17:38.001Z,26.72
2022-08-22T15:20:13.650Z,26.50
2022-08-22T15:22:46.792Z,26.39
2022-08-22T15:25:19.098Z,26.46
2022-08-22T15:27:57.594Z,26.22
2022-08-22T15:30:44.337Z,25.87
2022-08-22T15:33:22.621Z,25.79
2022-08-22T15:35:53.721Z,25.44
2022-08-22T15:38:32.259Z,24.99
2022-08-22T15:41:31.496Z,24.04
2022-08-22T15:44:13.823Z,23.58
2022-08-22T15:47:05.801Z,23.31
2022-08-22T15:49:52.826Z,23.43
2022-08-22T15:52:28.881Z,23.36
2022-08-22T15:55:23.671Z,23.28
2022-08-22T15:58:06.044Z,23.27
2022-08-22T16:00:44.933Z,23.33
2022-08-22T16:03:27.192Z,23.30
2022-08-22T16:05:59.177Z,23.47
2022-08-22T16:08:32.986Z,23.48
2022-08-22T16:11:33.097Z,23.50
2022-08-22T16:14:21.621Z,23.76
2022-08-22T16:17:03.715Z,23.78
2022-08-22T16:19:35.120Z,23.67
2022-08-22T16:22:16.019Z,23.89
2022-08-22T16:25:04.007Z,23.86
2022-08-22T16:27:35.218Z,23.75
2022-08-22T16:30:16.393Z,23.64
2022-08-22T16:32:55.537Z,23.47
2022-08-22T16:36:01.980Z,23.70
2022-08-22T16:38:37.388Z,23.70
2022-08-22T16:41:06.472Z,23.69
2022-08-22T16:43:36.757Z,23.72
2022-08-22T16:46:33.166Z,23.97
2022-08-22T16:49:05.893Z,24.03
2022-08-22T16:51:34.968Z,23.98
2022-08-22T16:54:09.440Z,23.85
2022-08-22T16:56:56.565Z,23.69
2022-08-22T16:59:42.079Z,23.66
2022-08-22T17:02:33.404Z,23.68
2022-08-22T17:05:17.457Z,23.67
2022-08-22T17:08:01.296Z,23.52
2022-08-22T17:10:48.941Z,23.40
2022-08-22T17:13:36.234Z,23.34
2022-08-22T17:16:23.235Z,23.45
2022-08-22T17:19:09.905Z,23.36
2022-08-22T17:21:50.730Z,23.31
2022-08-22T17:24:35.056Z,23.33
2022-08-22T17:27:15.873Z,23.42
2022-08-22T17:29:58.550Z,23.48
2022-08-22T17:32:38.606Z,23.46
2022-08-22T17:35:20.657Z,23.60
2022-08-22T17:38:03.681Z,23.72
2022-08-22T17:40:43.161Z,23.63
2022-08-22T17:43:48.363Z,23.37
2022-08-22T17:46:37.236Z,23.23
2022-08-22T17:49:20.350Z,23.42
2022-08-22T17:51:56.388Z,23.32
2022-08-22T17:54:34.360Z,23.32
2022-08-22T17:57:08.765Z,23.36
2022-08-22T17:59:47.771Z,23.40
2022-08-22T18:02:22.286Z,23.32
2022-08-22T18:05:03.634Z,23.29
2022-08-22T18:07:47.554Z,23.51
2022-08-22T18:10:27.400Z,23.49
2022-08-22T18:13:07.192Z,23.52
2022-08-22T18:15:46.237Z,23.62
2022-08-22T18:18:30.085Z,23.55
2022-08-22T18:21:07.139Z,23.62
2022-08-22T18:23:40.848Z,23.51
2022-08-22T18:26:24.899Z,23.41
2022-08-22T18:29:01.055Z,23.69
2022-08-22T18:31:41.590Z,23.67
2022-08-22T18:34:26.441Z,23.70
2022-08-22T18:37:04.512Z,23.58
2022-08-22T18:39:43.478Z,23.58
2022-08-22T18:42:24.281Z,23.51
2022-08-22T18:44:53.454Z,23.58
2022-08-22T18:47:25.696Z,23.18
2022-08-22T18:49:56.953Z,22.98
2022-08-22T18:52:45.212Z,23.06
2022-08-22T18:55:28.177Z,23.06
2022-08-22T18:58:22.551Z,23.29
2022-08-22T19:01:32.021Z,23.31
2022-08-22T19:04:43.146Z,23.21
2022-08-22T19:07:36.935Z,23.31
2022-08-22T19:10:35.016Z,23.08
2022-08-22T19:13:23.074Z,23.11
2022-08-22T19:16:06.133Z,23.16
2022-08-22T19:18:45.604Z,23.01
2022-08-22T19:21:34.844Z,23.00
2022-08-22T19:24:09.631Z,23.04
2022-08-22T19:26:43.574Z,22.83
2022-08-22T19:29:49.853Z,22.53
2022-08-22T19:32:53.404Z,22.59
2022-08-22T19:35:25.090Z,22.60
2022-08-22T19:37:56.068Z,22.32
2022-08-22T19:40:50.429Z,22.36
2022-08-22T19:43:33.162Z,22.37
2022-08-22T19:46:06.309Z,22.46
2022-08-22T19:48:45.593Z,22.62
2022-08-22T19:51:27.168Z,22.62
2022-08-22T19:54:16.397Z,22.59
2022-08-22T19:57:05.962Z,22.67
2022-08-22T19:59:50.818Z,22.53
2022-08-22T20:02:37.350Z,22.52
2022-08-22T20:05:29.672Z,22.61
2022-08-22T20:08:34.836Z,22.31
2022-08-22T20:11:19.556Z,22.15
2022-08-22T20:13:48.729Z,22.28
2022-08-22T20:16:23.475Z,22.25
2022-08-22T20:19:14.401Z,22.26
2022-08-22T20:21:54.879Z,22.23
2022-08-22T20:24:31.601Z,22.35
2022-08-22T20:27:15.140Z,22.30
2022-08-22T20:29:50.006Z,22.16
2022-08-22T20:32:23.470Z,22.23
2022-08-22T20:34:58.338Z,21.83
2022-08-22T20:37:56.133Z,21.81
2022-08-22T20:40:56.004Z,21.41
2022-08-22T20:43:29.312Z,21.80
2022-08-22T20:46:12.608Z,21.85
2022-08-22T20:48:46.149Z,22.00
2022-08-22T20:51:17.825Z,21.96
2022-08-22T20:53:53.061Z,21.98
2022-08-22T20:56:48.641Z,21.80
2022-08-22T20:59:27.492Z,21.68
2022-08-22T21:02:04.993Z,21.70
2022-08-22T21:04:42.802Z,21.80
2022-08-22T21:07:12.290Z,21.74
2022-08-22T21:09:58.329Z,21.82
2022-08-22T21:12:27.855Z,21.78
2022-08-22T21:14:56.703Z,22.01
2022-08-22T21:17:34.189Z,21.96
2022-08-22T21:20:21.239Z,22.13
2022-08-22T21:22:50.474Z,22.03
2022-08-22T21:25:19.667Z,22.25
2022-08-22T21:27:53.471Z,22.27
2022-08-22T21:30:24.312Z,22.30
2022-08-22T21:32:56.196Z,22.11
2022-08-22T21:35:30.945Z,21.99
2022-08-22T21:38:02.292Z,22.09
2022-08-22T21:40:34.423Z,21.95
2022-08-22T21:43:07.926Z,22.10
2022-08-22T21:45:43.777Z,22.08
2022-08-22T21:48:33.291Z,22.15
2022-08-22T21:51:28.844Z,22.14
2022-08-22T21:54:28.142Z,21.90
2022-08-22T21:56:58.670Z,21.93
2022-08-22T21:59:51.123Z,21.84
2022-08-22T22:02:36.326Z,22.03
2022-08-22T22:05:10.366Z,22.06
2022-08-22T22:07:44.717Z,22.06
2022-08-22T22:10:16.792Z,22.07
2022-08-22T22:12:48.139Z,22.04
2022-08-22T22:15:19.708Z,22.08
2022-08-22T22:17:48.750Z,22.17
2022-08-22T22:20:18.856Z,22.23
2022-08-22T22:22:49.361Z,22.12
2022-08-22T22:25:40.008Z,21.20
2022-08-22T22:28:14.370Z,20.93
2022-08-22T22:30:44.976Z,20.90
2022-08-22T22:33:14.010Z,21.37
2022-08-22T22:35:42.938Z,21.65
2022-08-22T22:38:13.690Z,21.89
2022-08-22T22:40:42.639Z,21.96
2022-08-22T22:43:12.399Z,21.98
2022-08-22T22:45:41.485Z,22.27
2022-08-22T22:48:10.344Z,22.13
2022-08-22T22:50:41.129Z,22.26
2022-08-22T22:53:10.785Z,22.15
2022-08-22T22:55:42.048Z,21.91
2022-08-22T22:58:11.138Z,21.80
2022-08-22T23:00:40.697Z,21.43
2022-08-22T23:03:10.145Z,21.58
2022-08-22T23:05:38.983Z,21.93
2022-08-22T23:08:07.924Z,21.83
2022-08-22T23:10:37.053Z,21.76
2022-08-22T23:13:07.477Z,21.87
2022-08-22T23:15:36.467Z,21.77
2022-08-22T23:18:05.734Z,21.60
2022-08-22T23:20:34.621Z,21.30
2022-08-22T23:23:03.492Z,21.51
2022-08-22T23:25:32.481Z,21.66
2022-08-22T23:28:01.486Z,21.62
2022-08-22T23:30:32.308Z,21.79
2022-08-22T23:33:01.446Z,21.91
2022-08-22T23:35:30.251Z,22.12
2022-08-22T23:37:59.375Z,22.13
2022-08-22T23:40:28.404Z,21.97
2022-08-22T23:42:59.316Z,22.17
2022-08-22T23:45:28.588Z,22.35
2022-08-22T23:47:58.942Z,21.93
2022-08-22T23:50:28.026Z,22.01
2022-08-22T23:52:56.878Z,22.03
2022-08-22T23:55:25.854Z,22.18
2022-08-22T23:57:54.789Z,21.50
